createdAt,value
2023-05-18T00:00:07.478Z,1
2023-05-18T00:01:51.163Z,1
2023-05-18T00:03:34.867Z,1
2023-05-18T00:05:18.561Z,1
2023-05-18T00:07:02.276Z,2
2023-05-18T00:08:45.967Z,1
2023-05-18T00:10:29.666Z,1
2023-05-18T00:12:13.375Z,1
2023-05-18T00:13:57.074Z,1
2023-05-18T00:15:40.774Z,1
2023-05-18T00:17:24.479Z,1
2023-05-18T00:19:08.182Z,2
2023-05-18T00:20:51.889Z,1
2023-05-18T00:22:35.588Z,1
2023-05-18T00:24:19.280Z,0
2023-05-18T00:26:02.986Z,1
2023-05-18T00:27:46.682Z,0
2023-05-18T00:29:30.389Z,1
2023-05-18T00:31:14.099Z,1
2023-05-18T00:32:57.805Z,2
2023-05-18T00:34:41.501Z,1
2023-05-18T00:36:25.197Z,1
2023-05-18T00:38:08.904Z,1
2023-05-18T00:39:52.622Z,1
2023-05-18T00:41:36.306Z,1
2023-05-18T00:43:20.022Z,1
2023-05-18T00:45:03.719Z,1
2023-05-18T00:46:47.413Z,0
2023-05-18T00:48:31.117Z,1
2023-05-18T00:50:14.811Z,1
2023-05-18T00:51:58.527Z,2
2023-05-18T00:53:42.229Z,1
2023-05-18T00:55:25.912Z,3
2023-05-18T00:57:09.630Z,1
2023-05-18T00:58:53.338Z,1
2023-05-18T01:00:37.016Z,1
2023-05-18T01:02:20.720Z,1
2023-05-18T01:04:04.415Z,1
2023-05-18T01:05:48.124Z,1
2023-05-18T01:07:31.835Z,1
2023-05-18T01:09:15.534Z,1
2023-05-18T01:10:59.230Z,1
2023-05-18T01:12:42.944Z,1
2023-05-18T01:14:26.646Z,1
2023-05-18T01:16:10.341Z,1
2023-05-18T01:17:54.066Z,1
2023-05-18T01:19:37.739Z,1
2023-05-18T01:21:21.449Z,1
2023-05-18T01:23:05.142Z,2
2023-05-18T01:24:48.873Z,2
2023-05-18T01:26:32.570Z,1
2023-05-18T01:28:16.244Z,2
2023-05-18T01:29:59.952Z,2
2023-05-18T01:31:43.661Z,1
2023-05-18T01:33:27.350Z,1
2023-05-18T01:35:11.052Z,1
2023-05-18T01:36:54.767Z,2
2023-05-18T01:38:38.462Z,1
2023-05-18T01:40:22.164Z,1
2023-05-18T01:42:05.862Z,1
2023-05-18T01:43:49.564Z,1
2023-05-18T01:45:33.274Z,1
2023-05-18T01:47:16.956Z,2
2023-05-18T01:49:00.662Z,1
2023-05-18T01:50:44.379Z,2
2023-05-18T01:52:28.075Z,1
2023-05-18T01:54:11.771Z,1
2023-05-18T01:55:55.473Z,1
2023-05-18T01:57:39.180Z,1
2023-05-18T01:59:22.882Z,1
2023-05-18T02:01:06.572Z,2
2023-05-18T02:02:50.286Z,1
2023-05-18T02:04:33.987Z,1
2023-05-18T02:06:17.675Z,1
2023-05-18T02:08:01.388Z,1
2023-05-18T02:09:45.086Z,1
2023-05-18T02:11:28.790Z,1
2023-05-18T02:13:12.480Z,1
2023-05-18T02:14:56.200Z,1
2023-05-18T02:16:39.901Z,1
2023-05-18T02:18:23.598Z,2
2023-05-18T02:20:07.294Z,2
2023-05-18T02:21:50.992Z,1
2023-05-18T02:23:34.700Z,1
2023-05-18T02:25:18.388Z,1
2023-05-18T02:27:02.102Z,1
2023-05-18T02:28:45.809Z,1
2023-05-18T02:30:29.511Z,2
2023-05-18T02:32:13.200Z,2
2023-05-18T02:33:56.932Z,2
2023-05-18T02:35:40.617Z,1
2023-05-18T02:37:24.328Z,1
2023-05-18T02:39:08.031Z,2
2023-05-18T02:40:51.722Z,1
2023-05-18T02:42:35.425Z,1
2023-05-18T02:44:19.116Z,2
2023-05-18T02:46:02.819Z,1
2023-05-18T02:47:46.516Z,1
2023-05-18T02:49:30.234Z,1
2023-05-18T02:51:13.934Z,1
2023-05-18T02:52:57.627Z,1
2023-05-18T02:54:41.325Z,1
2023-05-18T02:56:25.038Z,1
2023-05-18T02:58:08.743Z,1
2023-05-18T02:59:52.447Z,1
2023-05-18T03:01:36.147Z,1
2023-05-18T03:03:19.839Z,1
2023-05-18T03:05:03.541Z,1
2023-05-18T03:06:47.247Z,2
2023-05-18T03:08:30.945Z,2
2023-05-18T03:10:14.658Z,2
2023-05-18T03:11:58.350Z,3
2023-05-18T03:13:42.062Z,3
2023-05-18T03:15:25.758Z,3
2023-05-18T03:17:09.449Z,4
2023-05-18T03:18:53.155Z,5
2023-05-18T03:20:36.864Z,7
2023-05-18T03:22:20.566Z,7
2023-05-18T03:24:04.261Z,10
2023-05-18T03:25:47.958Z,11
2023-05-18T03:27:31.665Z,13
2023-05-18T03:29:15.371Z,16
2023-05-18T03:30:59.069Z,20
2023-05-18T03:32:42.780Z,24
2023-05-18T03:34:26.486Z,29
2023-05-18T03:36:10.176Z,33
2023-05-18T03:37:53.877Z,40
2023-05-18T03:39:37.588Z,46
2023-05-18T03:41:21.283Z,52
2023-05-18T03:43:04.991Z,58
2023-05-18T03:44:48.679Z,68
2023-05-18T03:46:32.382Z,75
2023-05-18T03:48:16.098Z,84
2023-05-18T03:49:59.786Z,94
2023-05-18T03:51:43.491Z,104
2023-05-18T03:53:27.193Z,114
2023-05-18T03:55:10.886Z,129
2023-05-18T03:56:54.600Z,141
2023-05-18T03:58:38.301Z,154
2023-05-18T04:00:22.006Z,169
2023-05-18T04:02:05.705Z,187
2023-05-18T04:03:49.398Z,210
2023-05-18T04:05:33.120Z,235
2023-05-18T04:07:16.812Z,262
2023-05-18T04:09:00.501Z,284
2023-05-18T04:10:44.217Z,293
2023-05-18T04:12:27.917Z,305
2023-05-18T04:14:11.616Z,320
2023-05-18T04:15:55.321Z,335
2023-05-18T04:17:39.021Z,363
2023-05-18T04:19:22.835Z,383
2023-05-18T04:21:06.439Z,400
2023-05-18T04:22:50.137Z,413
2023-05-18T04:24:33.829Z,427
2023-05-18T04:26:17.531Z,440
2023-05-18T04:28:01.224Z,456
2023-05-18T04:31:28.642Z,484
2023-05-18T04:33:12.334Z,490
2023-05-18T04:34:56.035Z,505
2023-05-18T04:36:39.743Z,521
2023-05-18T04:38:23.444Z,539
2023-05-18T04:40:07.156Z,551
2023-05-18T04:41:50.843Z,562
2023-05-18T04:43:34.548Z,575
2023-05-18T04:45:18.248Z,590
2023-05-18T04:47:01.952Z,605
2023-05-18T04:48:45.650Z,621
2023-05-18T04:50:29.359Z,638
2023-05-18T04:52:13.061Z,654
2023-05-18T04:53:56.767Z,666
2023-05-18T04:55:40.473Z,680
2023-05-18T04:57:24.161Z,692
2023-05-18T04:59:07.872Z,703
2023-05-18T05:00:51.553Z,717
2023-05-18T05:02:35.251Z,735
2023-05-18T05:04:18.969Z,739
2023-05-18T05:06:02.661Z,739
2023-05-18T05:07:46.365Z,739
2023-05-18T05:09:30.064Z,737
2023-05-18T05:11:13.762Z,738
2023-05-18T05:12:57.469Z,740
2023-05-18T05:14:41.171Z,739
2023-05-18T05:16:24.877Z,739
2023-05-18T05:18:08.577Z,738
2023-05-18T05:19:52.278Z,738
2023-05-18T05:21:35.976Z,739
2023-05-18T05:23:19.683Z,738
2023-05-18T05:25:03.391Z,739
2023-05-18T05:26:47.102Z,739
2023-05-18T05:28:30.784Z,730
2023-05-18T05:30:14.488Z,740
2023-05-18T05:31:58.186Z,738
2023-05-18T05:33:41.888Z,738
2023-05-18T05:35:25.625Z,738
2023-05-18T05:37:09.290Z,739
2023-05-18T05:38:53.055Z,739
2023-05-18T05:40:36.692Z,738
2023-05-18T05:42:20.409Z,737
2023-05-18T05:44:04.101Z,738
2023-05-18T05:45:47.797Z,740
2023-05-18T05:47:31.502Z,739
2023-05-18T05:49:15.210Z,738
2023-05-18T05:50:58.913Z,739
2023-05-18T05:52:42.607Z,739
2023-05-18T05:54:26.302Z,740
2023-05-18T05:56:10.054Z,737
2023-05-18T05:57:53.717Z,739
2023-05-18T05:59:37.413Z,739
2023-05-18T06:01:21.121Z,739
2023-05-18T06:03:04.829Z,739
2023-05-18T06:04:48.523Z,739
2023-05-18T06:06:32.229Z,739
2023-05-18T06:08:15.925Z,739
2023-05-18T06:09:59.627Z,740
2023-05-18T06:11:43.321Z,738
2023-05-18T06:13:27.031Z,739
2023-05-18T06:16:54.455Z,740
2023-05-18T06:18:38.149Z,739
2023-05-18T06:20:21.845Z,739
2023-05-18T06:22:05.539Z,738
2023-05-18T06:25:32.934Z,739
2023-05-18T06:29:00.342Z,729
2023-05-18T06:30:44.062Z,738
2023-05-18T06:32:27.761Z,739
2023-05-18T06:34:11.455Z,739
2023-05-18T06:35:55.167Z,739
2023-05-18T06:37:38.860Z,738
2023-05-18T06:39:29.556Z,738
2023-05-18T06:41:06.258Z,739
2023-05-18T06:42:49.957Z,739
2023-05-18T06:44:33.667Z,739
2023-05-18T06:46:17.367Z,738
2023-05-18T06:48:01.064Z,730
2023-05-18T06:51:28.499Z,738
2023-05-18T06:53:12.179Z,739
2023-05-18T06:56:39.594Z,738
2023-05-18T06:58:23.285Z,739
2023-05-18T07:00:06.988Z,739
2023-05-18T07:03:34.378Z,739
2023-05-18T07:05:18.079Z,740
2023-05-18T07:07:01.798Z,737
2023-05-18T07:08:45.524Z,738
2023-05-18T07:10:36.192Z,739
2023-05-18T07:12:19.896Z,739
2023-05-18T07:13:56.596Z,740
2023-05-18T07:15:47.315Z,738
2023-05-18T07:17:24.014Z,738
2023-05-18T07:19:07.696Z,739
2023-05-18T07:20:51.410Z,738
2023-05-18T07:22:35.099Z,739
2023-05-18T07:24:18.818Z,739
2023-05-18T07:26:02.504Z,739
2023-05-18T07:29:29.954Z,739
2023-05-18T07:31:13.618Z,738
2023-05-18T07:32:57.315Z,739
2023-05-18T07:34:41.018Z,740
2023-05-18T07:36:24.716Z,740
2023-05-18T07:38:08.436Z,739
2023-05-18T07:39:52.128Z,730
2023-05-18T07:41:35.828Z,739
2023-05-18T07:45:03.224Z,740
2023-05-18T07:46:46.938Z,738
2023-05-18T07:48:30.632Z,738
2023-05-18T07:50:14.343Z,739
2023-05-18T07:51:58.051Z,740
2023-05-18T07:53:41.746Z,738
2023-05-18T07:55:25.430Z,739
2023-05-18T07:57:09.146Z,738
2023-05-18T07:58:52.854Z,740
2023-05-18T08:00:36.567Z,740
2023-05-18T08:02:20.260Z,739
2023-05-18T08:04:03.949Z,739
2023-05-18T08:05:47.685Z,739
2023-05-18T08:07:31.367Z,739
2023-05-18T08:09:15.076Z,739
2023-05-18T08:10:58.764Z,739
2023-05-18T08:12:42.467Z,732
2023-05-18T08:14:26.172Z,738
2023-05-18T08:16:09.918Z,740
2023-05-18T08:21:20.991Z,738
2023-05-18T08:23:04.687Z,740
2023-05-18T08:24:48.384Z,739
2023-05-18T08:26:32.108Z,739
2023-05-18T08:28:15.782Z,739
2023-05-18T08:29:59.509Z,739
2023-05-18T08:31:43.198Z,738
2023-05-18T08:33:26.895Z,740
2023-05-18T08:35:10.600Z,738
2023-05-18T08:36:54.289Z,738
2023-05-18T08:38:37.991Z,739
2023-05-18T08:40:21.699Z,740
2023-05-18T08:42:05.393Z,739
2023-05-18T08:43:49.101Z,739
2023-05-18T08:45:32.804Z,739
2023-05-18T08:47:16.509Z,739
2023-05-18T08:49:00.208Z,739
2023-05-18T08:50:43.906Z,739
2023-05-18T08:52:27.605Z,739
2023-05-18T08:54:11.324Z,740
2023-05-18T08:55:55.029Z,739
2023-05-18T08:57:38.711Z,740
2023-05-18T08:59:22.431Z,739
2023-05-18T09:02:49.906Z,739
2023-05-18T09:06:17.238Z,739
2023-05-18T09:09:44.621Z,740
2023-05-18T09:11:28.346Z,739
2023-05-18T09:13:12.033Z,739
2023-05-18T09:14:55.742Z,738
2023-05-18T09:16:39.439Z,739
2023-05-18T09:18:23.134Z,739
2023-05-18T09:20:13.828Z,740
2023-05-18T09:21:57.552Z,739
2023-05-18T09:23:34.248Z,730
2023-05-18T09:25:17.933Z,740
2023-05-18T09:27:01.643Z,739
2023-05-18T09:28:45.345Z,739
2023-05-18T09:33:56.455Z,739
2023-05-18T09:37:23.853Z,738
2023-05-18T09:39:07.564Z,739
2023-05-18T09:40:51.254Z,739
2023-05-18T09:42:34.964Z,740
2023-05-18T09:44:18.668Z,740
2023-05-18T09:46:02.381Z,739
2023-05-18T09:47:46.072Z,739
2023-05-18T09:49:29.775Z,739
2023-05-18T09:51:13.493Z,739
2023-05-18T09:52:57.171Z,739
2023-05-18T09:54:40.882Z,739
2023-05-18T09:56:24.597Z,730
2023-05-18T09:58:08.281Z,739
2023-05-18T09:59:51.993Z,740
2023-05-18T10:01:35.681Z,738
2023-05-18T10:03:19.380Z,739
2023-05-18T10:05:03.092Z,740
2023-05-18T10:06:46.784Z,740
2023-05-18T10:10:14.193Z,739
2023-05-18T10:11:57.887Z,739
2023-05-18T10:13:41.588Z,740
2023-05-18T10:15:25.288Z,739
2023-05-18T10:17:09.004Z,739
2023-05-18T10:18:52.698Z,739
2023-05-18T10:20:36.389Z,740
2023-05-18T10:22:20.100Z,740
2023-05-18T10:24:03.806Z,740
2023-05-18T10:25:47.502Z,739
2023-05-18T10:27:31.229Z,739
2023-05-18T10:30:58.604Z,738
2023-05-18T10:32:42.325Z,739
2023-05-18T10:34:26.014Z,738
2023-05-18T10:36:09.712Z,739
2023-05-18T10:37:53.439Z,739
2023-05-18T10:39:37.190Z,738
2023-05-18T10:41:20.816Z,739
2023-05-18T10:43:04.521Z,739
2023-05-18T10:44:48.384Z,739
2023-05-18T10:46:31.926Z,740
2023-05-18T10:48:15.633Z,737
2023-05-18T10:49:59.323Z,739
2023-05-18T10:51:43.025Z,739
2023-05-18T10:53:26.729Z,740
2023-05-18T10:55:10.433Z,740
2023-05-18T10:56:54.140Z,739
2023-05-18T10:58:37.834Z,739
2023-05-18T11:00:21.538Z,739
2023-05-18T11:02:05.250Z,740
2023-05-18T11:05:32.648Z,738
2023-05-18T11:07:16.353Z,738
2023-05-18T11:09:00.048Z,740
2023-05-18T11:10:43.750Z,740
2023-05-18T11:12:27.451Z,738
2023-05-18T11:15:54.895Z,739
2023-05-18T11:17:38.557Z,740
2023-05-18T11:19:22.254Z,739
2023-05-18T11:21:05.952Z,739
2023-05-18T11:22:49.656Z,739
2023-05-18T11:24:33.371Z,738
2023-05-18T11:26:17.060Z,739
2023-05-18T11:28:00.766Z,740
2023-05-18T11:29:44.469Z,740
2023-05-18T11:31:28.170Z,737
2023-05-18T11:33:11.857Z,739
2023-05-18T11:36:39.266Z,739
2023-05-18T11:38:30.021Z,739
2023-05-18T11:40:13.697Z,740
2023-05-18T11:41:50.481Z,739
2023-05-18T11:43:34.080Z,739
2023-05-18T11:45:17.952Z,739
2023-05-18T11:47:08.482Z,739
2023-05-18T11:48:45.183Z,739
2023-05-18T11:50:28.888Z,739
2023-05-18T11:53:56.279Z,738
2023-05-18T11:55:40.009Z,739
2023-05-18T11:57:23.682Z,739
2023-05-18T11:59:07.437Z,739
2023-05-18T12:00:51.120Z,739
2023-05-18T12:02:34.791Z,739
2023-05-18T12:04:18.496Z,740
2023-05-18T12:06:02.183Z,740
2023-05-18T12:07:45.892Z,739
2023-05-18T12:09:29.591Z,738
2023-05-18T12:11:13.288Z,740
2023-05-18T12:14:40.696Z,738
2023-05-18T12:16:24.401Z,739
2023-05-18T12:18:08.110Z,740
2023-05-18T12:19:51.794Z,739
2023-05-18T12:21:35.497Z,740
2023-05-18T12:23:19.201Z,740
2023-05-18T12:25:03.000Z,740
2023-05-18T12:26:46.613Z,740
2023-05-18T12:28:30.342Z,740
2023-05-18T12:30:14.064Z,739
2023-05-18T12:31:57.694Z,740
2023-05-18T12:33:41.479Z,739
2023-05-18T12:35:25.126Z,740
2023-05-18T12:37:08.811Z,739
2023-05-18T12:38:52.506Z,739
2023-05-18T12:40:36.258Z,740
2023-05-18T12:42:19.925Z,741
2023-05-18T12:44:03.633Z,740
2023-05-18T12:45:47.398Z,739
2023-05-18T12:47:31.037Z,739
2023-05-18T12:49:14.841Z,740
2023-05-18T12:52:42.174Z,740
2023-05-18T12:54:25.829Z,739
2023-05-18T12:56:09.572Z,740
2023-05-18T12:57:53.245Z,741
2023-05-18T12:59:36.930Z,740
2023-05-18T13:01:20.651Z,740
2023-05-18T13:03:04.325Z,740
2023-05-18T13:04:48.048Z,740
2023-05-18T13:06:31.741Z,731
2023-05-18T13:08:15.433Z,739
2023-05-18T13:09:59.135Z,739
2023-05-18T13:11:42.867Z,740
2023-05-18T13:13:26.592Z,740
2023-05-18T13:15:10.238Z,740
2023-05-18T13:16:54.105Z,740
2023-05-18T13:18:37.808Z,741
2023-05-18T13:20:21.350Z,740
2023-05-18T13:22:05.131Z,740
2023-05-18T13:23:48.749Z,738
2023-05-18T13:25:32.456Z,740
2023-05-18T13:27:16.314Z,740
2023-05-18T13:28:59.952Z,739
2023-05-18T13:30:43.601Z,740
2023-05-18T13:32:27.313Z,740
2023-05-18T13:34:11.103Z,740
2023-05-18T13:35:54.750Z,741
2023-05-18T13:37:38.358Z,740
2023-05-18T13:39:22.081Z,738
2023-05-18T13:41:05.772Z,740
2023-05-18T13:42:49.463Z,740
2023-05-18T13:44:33.219Z,738
2023-05-18T13:46:16.895Z,739
2023-05-18T13:48:00.593Z,740
2023-05-18T13:49:44.291Z,740
2023-05-18T13:51:28.069Z,740
2023-05-18T13:53:11.739Z,740
2023-05-18T13:54:55.377Z,740
2023-05-18T13:56:39.080Z,740
2023-05-18T13:58:22.790Z,740
2023-05-18T14:00:06.485Z,740
2023-05-18T14:01:50.186Z,738
2023-05-18T14:03:33.991Z,739
2023-05-18T14:05:17.598Z,740
2023-05-18T14:07:01.293Z,741
2023-05-18T14:08:44.990Z,739
2023-05-18T14:10:28.698Z,740
2023-05-18T14:12:12.424Z,740
2023-05-18T14:13:56.189Z,740
2023-05-18T14:15:39.852Z,739
2023-05-18T14:17:23.542Z,739
2023-05-18T14:19:07.274Z,740
2023-05-18T14:20:50.931Z,741
2023-05-18T14:22:34.654Z,739
2023-05-18T14:24:18.368Z,740
2023-05-18T14:26:02.143Z,739
2023-05-18T14:27:45.858Z,740
2023-05-18T14:29:29.514Z,740
2023-05-18T14:31:13.272Z,740
2023-05-18T14:32:56.895Z,740
2023-05-18T14:34:40.511Z,740
2023-05-18T14:36:24.212Z,740
2023-05-18T14:38:07.947Z,739
2023-05-18T14:39:51.618Z,739
2023-05-18T14:41:35.315Z,733
2023-05-18T14:43:19.142Z,740
2023-05-18T14:45:02.779Z,740
2023-05-18T14:46:46.415Z,740
2023-05-18T14:48:30.247Z,740
2023-05-18T14:50:13.906Z,739
2023-05-18T14:51:57.534Z,740
2023-05-18T14:53:41.253Z,740
2023-05-18T14:55:24.946Z,740
2023-05-18T14:57:08.643Z,740
2023-05-18T14:58:52.337Z,739
2023-05-18T15:00:36.033Z,730
2023-05-18T15:02:19.835Z,740
2023-05-18T15:04:03.459Z,740
2023-05-18T15:05:47.151Z,736
2023-05-18T15:07:30.859Z,733
2023-05-18T15:09:14.547Z,741
2023-05-18T15:10:58.243Z,715
2023-05-18T15:12:42.019Z,701
2023-05-18T15:14:25.677Z,716
2023-05-18T15:16:09.349Z,690
2023-05-18T15:17:53.098Z,681
2023-05-18T15:19:36.757Z,692
2023-05-18T15:21:20.459Z,682
2023-05-18T15:23:04.181Z,671
2023-05-18T15:24:47.874Z,669
2023-05-18T15:26:31.564Z,678
2023-05-18T15:28:15.299Z,660
2023-05-18T15:29:59.005Z,630
2023-05-18T15:31:42.689Z,607
2023-05-18T15:33:26.378Z,600
2023-05-18T15:35:10.140Z,606
2023-05-18T15:36:53.765Z,616
2023-05-18T15:38:37.466Z,640
2023-05-18T15:40:21.176Z,651
2023-05-18T15:42:05.047Z,636
2023-05-18T15:43:48.569Z,630
2023-05-18T15:45:32.271Z,613
2023-05-18T15:47:15.978Z,594
2023-05-18T15:48:59.675Z,568
2023-05-18T15:50:43.385Z,545
2023-05-18T15:52:27.106Z,523
2023-05-18T15:54:10.776Z,500
2023-05-18T15:55:54.534Z,472
2023-05-18T15:57:38.186Z,445
2023-05-18T15:59:21.892Z,425
2023-05-18T16:01:05.596Z,416
2023-05-18T16:02:49.291Z,413
2023-05-18T16:04:33.016Z,423
2023-05-18T16:06:16.764Z,431
2023-05-18T16:08:00.409Z,426
2023-05-18T16:09:44.100Z,406
2023-05-18T16:11:27.801Z,376
2023-05-18T16:13:11.523Z,353
2023-05-18T16:14:55.211Z,339
2023-05-18T16:16:38.909Z,332
2023-05-18T16:18:22.615Z,325
2023-05-18T16:20:06.304Z,317
2023-05-18T16:21:50.018Z,309
2023-05-18T16:23:33.712Z,308
2023-05-18T16:25:17.434Z,313
2023-05-18T16:27:01.106Z,317
2023-05-18T16:28:44.813Z,318
2023-05-18T16:30:28.522Z,316
2023-05-18T16:32:12.215Z,317
2023-05-18T16:33:55.917Z,313
2023-05-18T16:35:39.618Z,300
2023-05-18T16:37:23.322Z,297
2023-05-18T16:39:07.054Z,296
2023-05-18T16:40:50.717Z,291
2023-05-18T16:42:34.425Z,285
2023-05-18T16:44:18.140Z,273
2023-05-18T16:46:01.831Z,259
2023-05-18T16:47:45.525Z,249
2023-05-18T16:49:29.239Z,244
2023-05-18T16:51:12.996Z,241
2023-05-18T16:52:56.634Z,235
2023-05-18T16:54:40.336Z,234
2023-05-18T16:56:24.044Z,238
2023-05-18T16:58:07.739Z,243
2023-05-18T16:59:51.446Z,250
2023-05-18T17:03:18.877Z,291
2023-05-18T17:05:02.533Z,289
2023-05-18T17:06:46.255Z,297
2023-05-18T17:08:29.956Z,304
2023-05-18T17:10:13.653Z,307
2023-05-18T17:11:57.364Z,306
2023-05-18T17:13:41.057Z,310
2023-05-18T17:15:24.754Z,300
2023-05-18T17:17:08.509Z,281
2023-05-18T17:18:52.166Z,258
2023-05-18T17:20:35.858Z,239
2023-05-18T17:22:19.558Z,231
2023-05-18T17:24:03.257Z,226
2023-05-18T17:25:46.967Z,230
2023-05-18T17:27:30.710Z,231
2023-05-18T17:30:58.116Z,232
2023-05-18T17:32:41.780Z,230
2023-05-18T17:34:25.494Z,226
2023-05-18T17:36:09.207Z,215
2023-05-18T17:37:52.873Z,206
2023-05-18T17:39:36.585Z,198
2023-05-18T17:41:20.310Z,193
2023-05-18T17:43:03.976Z,190
2023-05-18T17:44:47.683Z,180
2023-05-18T17:46:31.389Z,165
2023-05-18T17:48:15.076Z,157
2023-05-18T17:49:58.793Z,144
2023-05-18T17:51:42.490Z,141
2023-05-18T17:53:26.189Z,139
2023-05-18T17:56:53.585Z,141
2023-05-18T17:58:37.337Z,139
2023-05-18T18:00:21.033Z,133
2023-05-18T18:02:04.722Z,132
2023-05-18T18:03:48.440Z,126
2023-05-18T18:05:32.095Z,135
2023-05-18T18:07:15.807Z,132
2023-05-18T18:08:59.516Z,126
2023-05-18T18:10:43.219Z,127
2023-05-18T18:12:26.903Z,126
2023-05-18T18:14:10.623Z,126
2023-05-18T18:15:54.324Z,120
2023-05-18T18:17:38.010Z,114
2023-05-18T18:19:21.742Z,104
2023-05-18T18:21:05.415Z,106
2023-05-18T18:22:49.117Z,99
2023-05-18T18:26:16.523Z,85
2023-05-18T18:28:00.221Z,80
2023-05-18T18:29:43.915Z,77
2023-05-18T18:31:27.618Z,73
2023-05-18T18:33:11.335Z,71
2023-05-18T18:34:55.021Z,67
2023-05-18T18:36:38.732Z,62
2023-05-18T18:38:22.445Z,57
2023-05-18T18:40:06.134Z,52
2023-05-18T18:41:49.835Z,49
2023-05-18T18:43:33.533Z,46
2023-05-18T18:45:17.241Z,45
2023-05-18T18:47:00.947Z,37
2023-05-18T18:48:44.640Z,35
2023-05-18T18:50:28.356Z,32
2023-05-18T18:52:12.039Z,31
2023-05-18T18:53:55.740Z,23
2023-05-18T18:55:39.449Z,19
2023-05-18T18:57:23.181Z,16
2023-05-18T18:59:06.851Z,13
2023-05-18T19:00:50.553Z,11
2023-05-18T19:02:34.250Z,9
2023-05-18T19:04:17.959Z,7
2023-05-18T19:06:01.655Z,5
2023-05-18T19:07:45.345Z,5
2023-05-18T19:09:29.141Z,4
2023-05-18T19:11:12.760Z,4
2023-05-18T19:12:56.468Z,3
2023-05-18T19:14:40.164Z,3
2023-05-18T19:16:23.870Z,2
2023-05-18T19:18:07.560Z,2
2023-05-18T19:19:51.264Z,2
2023-05-18T19:21:35.009Z,2
2023-05-18T19:23:18.662Z,1
2023-05-18T19:25:02.369Z,2
2023-05-18T19:26:46.099Z,1
2023-05-18T19:28:29.772Z,1
2023-05-18T19:30:13.468Z,1
2023-05-18T19:31:57.176Z,2
2023-05-18T19:33:40.897Z,1
2023-05-18T19:35:24.591Z,2
2023-05-18T19:37:08.313Z,2
2023-05-18T19:38:52.056Z,1
2023-05-18T19:40:35.670Z,1
2023-05-18T19:42:19.373Z,1
2023-05-18T19:44:03.076Z,1
2023-05-18T19:45:46.782Z,1
2023-05-18T19:47:30.498Z,1
2023-05-18T19:49:14.175Z,1
2023-05-18T19:50:57.879Z,1
2023-05-18T19:52:41.695Z,1
2023-05-18T19:56:08.982Z,3
2023-05-18T19:57:52.701Z,1
2023-05-18T19:59:36.388Z,1
2023-05-18T20:01:20.096Z,2
2023-05-18T20:03:03.793Z,1
2023-05-18T20:04:47.498Z,1
2023-05-18T20:06:31.208Z,1
2023-05-18T20:08:14.899Z,1
2023-05-18T20:09:58.598Z,1
2023-05-18T20:11:42.313Z,2
2023-05-18T20:13:26.041Z,1
2023-05-18T20:15:09.706Z,1
2023-05-18T20:16:53.410Z,2
2023-05-18T20:18:37.111Z,1
2023-05-18T20:20:20.819Z,0
2023-05-18T20:22:04.510Z,8
2023-05-18T20:23:48.223Z,3
2023-05-18T20:25:31.922Z,2
2023-05-18T20:28:59.322Z,1
2023-05-18T20:30:43.081Z,1
2023-05-18T20:32:26.731Z,2
2023-05-18T20:34:10.463Z,2
2023-05-18T20:35:54.122Z,1
2023-05-18T20:37:37.830Z,1
2023-05-18T20:39:21.556Z,0
2023-05-18T20:41:05.226Z,1
2023-05-18T20:42:48.931Z,3
2023-05-18T20:44:32.643Z,3
2023-05-18T20:46:16.341Z,2
2023-05-18T20:48:00.039Z,4
2023-05-18T20:49:43.734Z,2
2023-05-18T20:51:27.453Z,3
2023-05-18T20:53:11.151Z,3
2023-05-18T20:54:54.837Z,2
2023-05-18T20:56:38.549Z,2
2023-05-18T20:58:22.258Z,3
2023-05-18T21:00:05.954Z,2
2023-05-18T21:01:49.640Z,1
2023-05-18T21:03:33.344Z,1
2023-05-18T21:05:17.072Z,1
2023-05-18T21:07:00.747Z,1
2023-05-18T21:08:44.452Z,0
2023-05-18T21:10:28.157Z,0
2023-05-18T21:12:11.860Z,1
2023-05-18T21:13:55.545Z,1
2023-05-18T21:19:06.733Z,1
2023-05-18T21:20:50.402Z,1
2023-05-18T21:22:34.066Z,1
2023-05-18T21:24:17.766Z,1
2023-05-18T21:26:01.469Z,1
2023-05-18T21:27:45.179Z,1
2023-05-18T21:29:28.912Z,1
2023-05-18T21:31:12.660Z,1
2023-05-18T21:32:56.290Z,1
2023-05-18T21:34:40.015Z,0
2023-05-18T21:38:07.390Z,1
2023-05-18T21:41:34.812Z,1
2023-05-18T21:43:18.515Z,0
2023-05-18T21:45:02.210Z,1
2023-05-18T21:46:45.901Z,0
2023-05-18T21:48:29.595Z,0
2023-05-18T21:50:13.313Z,0
2023-05-18T21:51:57.000Z,1
2023-05-18T21:53:40.733Z,1
2023-05-18T22:00:35.518Z,1
2023-05-18T22:02:19.222Z,1
2023-05-18T22:05:46.632Z,0
2023-05-18T22:07:30.376Z,1
2023-05-18T22:12:41.405Z,1
2023-05-18T22:19:36.220Z,0
2023-05-18T22:21:19.926Z,1
2023-05-18T22:23:03.697Z,1
2023-05-18T22:29:58.454Z,0
2023-05-18T22:31:42.132Z,1
2023-05-18T22:33:25.849Z,1
2023-05-18T22:35:23.531Z,1
2023-05-18T22:36:53.238Z,1
2023-05-18T22:38:43.934Z,0
2023-05-18T22:40:27.637Z,1
2023-05-18T22:42:04.357Z,1
2023-05-18T22:43:55.074Z,0
2023-05-18T22:48:59.135Z,1
2023-05-18T22:52:26.540Z,1
2023-05-18T22:54:17.287Z,1
2023-05-18T22:55:53.954Z,1
2023-05-18T22:59:21.352Z,1
2023-05-18T23:01:05.068Z,0
2023-05-18T23:02:48.780Z,1
2023-05-18T23:04:32.460Z,1
2023-05-18T23:08:06.858Z,1
2023-05-18T23:09:43.560Z,1
2023-05-18T23:11:27.256Z,1
2023-05-18T23:13:10.958Z,1
2023-05-18T23:15:08.711Z,1
2023-05-18T23:16:38.395Z,1
2023-05-18T23:18:22.102Z,1
2023-05-18T23:22:03.475Z,1
2023-05-18T23:23:33.173Z,1
2023-05-18T23:25:30.928Z,1
2023-05-18T23:27:14.591Z,1
2023-05-18T23:28:44.270Z,1
2023-05-18T23:30:34.983Z,1
2023-05-18T23:32:11.684Z,0
2023-05-18T23:34:02.390Z,1
2023-05-18T23:35:39.082Z,1
2023-05-18T23:37:22.784Z,1
2023-05-18T23:39:20.499Z,1
2023-05-18T23:40:50.179Z,0
2023-05-18T23:42:33.886Z,1
2023-05-18T23:44:17.597Z,1
2023-05-18T23:47:44.984Z,1
2023-05-18T23:49:28.697Z,1
2023-05-18T23:51:19.391Z,0
2023-05-18T23:54:39.796Z,0
2023-05-18T23:56:23.500Z,0
2023-05-18T23:58:14.220Z,1
2023-05-18T23:59:50.934Z,0
